METAR Data

Data at: 2227 UTC 26 Feb 2020

METAR for:KPWM (Portland Intl, ME, US)
Text:KPWM 262151Z 08007KT 10SM OVC060 05/01 A3002 RMK AO2 SLP165 T00500006
Temperature: 5.0°C ( 41°F)
Dewpoint: 0.6°C ( 33°F) [RH = 73%]
Pressure (altimeter):30.02 inches Hg (1016.7 mb) [Sea level pressure: 1016.5 mb]
Winds:from the E (80 degrees) at 8 MPH (7 knots; 3.6 m/s)
Visibility:10 or more sm (16+ km)
Ceiling:6000 feet AGL
Clouds: overcast cloud deck at 6000 feet AGL